Washington, NC

10:13 PM EDT on July 20, 2017 (GMT -0400)
Warren

Weather History for KOCW - November, 2012

Change the Weather History Date:

Thursday, November 15, 2012

  Actual Average (KPGV) Record (KPGV)
Temperature  
Mean Temperature 48 °F -  
Max Temperature 55 °F 65 °F 84 °F (1993)
Min Temperature 40 °F 39 °F 24 °F (2014)
Degree Days  
Heating Degree Days 18    
Moisture  
Dew Point 41 °F    
Average Humidity 78    
Maximum Humidity 81    
Minimum Humidity 74    
Precipitation  
Precipitation 0.22 in - - ()
Sea Level Pressure  
Sea Level Pressure 30.26 in    
Wind  
Wind Speed 7 mph (North)    
Max Wind Speed 14 mph    
Max Gust Speed 20 mph    
Visibility 10 miles    
Events Rain    
Averages and records for this station are not official NWS values.
T = Trace of Precipitation, MM = Missing Value Source: NWS Daily Summary

Daily Weather History Graph

Daily Weather History Graph

Search for Another Location

Airport or City:

Trip Planner

Search our weather history database for the weather conditions in past years. The results will help you decide how hot, cold, wet, or windy it might be!

Date:

Astronomy

Nov. 15, 2012 Rise Set
Actual Time 6:44 AM EST 5:01 PM EST
Civil Twilight 6:17 AM EST 5:28 PM EST
Nautical Twilight 5:46 AM EST 5:59 PM EST
Astronomical Twilight 5:16 AM EST 6:29 PM EST
Moon 8:35 AM EST (11/15) 6:52 PM EST (11/15)
Length of Visible Light 11h 11m
Length of Day
10h 16m
Waxing Crescent, 5% of the Moon is Illuminated
Nov 15
Waxing Crescent
Nov 20
First Quarter
Nov 28
Full
Dec 6
Last Quarter
Dec 13
New

Hourly Weather History & Observations

Time (EST) Temp. Windchill Dew Point Humidity Pressure Visibility Wind Dir Wind Speed Gust Speed Precip Events Conditions
12:15 AM 42.8 °F 38.0 °F 35.1 °F 74% 30.35 in 10.0 mi North 8.1 mph - N/A   Overcast
12:35 AM 42.8 °F 38.6 °F 34.9 °F 74% 30.34 in 10.0 mi NNW 6.9 mph - N/A   Overcast
12:55 AM 42.8 °F 37.5 °F 35.1 °F 74% 30.34 in 10.0 mi North 9.2 mph - N/A   Overcast
1:15 AM 42.8 °F 38.6 °F 35.1 °F 74% 30.34 in 10.0 mi North 6.9 mph - N/A   Overcast
1:35 AM 42.8 °F 38.0 °F 35.2 °F 75% 30.33 in 10.0 mi North 8.1 mph - N/A   Overcast
1:55 AM 42.8 °F 38.6 °F 35.6 °F 76% 30.32 in 10.0 mi North 6.9 mph - N/A   Scattered Clouds
2:15 AM 42.8 °F 38.6 °F 35.8 °F 76% 30.32 in 10.0 mi North 6.9 mph - N/A   Clear
2:35 AM 40.5 °F 35.1 °F 34.0 °F 78% 30.32 in 10.0 mi North 8.1 mph - N/A   Clear
2:55 AM 40.3 °F 35.5 °F 33.8 °F 78% 30.31 in 10.0 mi North 6.9 mph - N/A   Clear
3:15 AM 40.3 °F 35.5 °F 33.4 °F 77% 30.30 in 10.0 mi North 6.9 mph - N/A   Clear
3:35 AM 40.1 °F 36.1 °F 33.4 °F 77% 30.29 in 10.0 mi North 5.8 mph - N/A   Clear
3:55 AM 40.1 °F 35.3 °F 33.8 °F 78% 30.29 in 10.0 mi North 6.9 mph - N/A   Clear
4:15 AM 40.3 °F 36.3 °F 34.0 °F 78% 30.29 in 10.0 mi North 5.8 mph - N/A   Clear
4:35 AM 40.6 °F 36.7 °F 34.3 °F 78% 30.29 in 10.0 mi North 5.8 mph - N/A   Mostly Cloudy
4:55 AM 42.8 °F 38.0 °F 36.0 °F 77% 30.28 in 10.0 mi NNE 8.1 mph - N/A   Overcast
5:15 AM 42.8 °F 39.3 °F 35.6 °F 76% 30.29 in 10.0 mi North 5.8 mph - N/A   Overcast
5:35 AM 42.8 °F 39.3 °F 35.6 °F 76% 30.28 in 10.0 mi North 5.8 mph - N/A   Overcast
5:55 AM 42.8 °F 40.1 °F 35.8 °F 76% 30.28 in 10.0 mi NW 4.6 mph - N/A   Overcast
6:15 AM 42.8 °F 40.1 °F 35.8 °F 76% 30.29 in 10.0 mi NNW 4.6 mph - N/A   Overcast
6:35 AM 42.8 °F 41.1 °F 36.0 °F 77% 30.30 in 10.0 mi NNW 3.5 mph - N/A   Overcast
6:55 AM 42.8 °F 39.3 °F 36.3 °F 78% 30.29 in 10.0 mi NNW 5.8 mph - N/A   Scattered Clouds
7:15 AM 42.8 °F 38.6 °F 36.3 °F 78% 30.29 in 10.0 mi North 6.9 mph - N/A   Scattered Clouds
7:35 AM 42.8 °F 39.3 °F 36.0 °F 77% 30.29 in 10.0 mi NNW 5.8 mph - N/A   Overcast
7:55 AM 42.8 °F 38.6 °F 36.0 °F 77% 30.29 in 10.0 mi North 6.9 mph - N/A   Overcast
8:15 AM 43.7 °F 39.7 °F 37.2 °F 78% 30.29 in 10.0 mi North 6.9 mph - N/A   Mostly Cloudy
8:35 AM 44.2 °F 41.0 °F 37.6 °F 77% 30.30 in 10.0 mi North 5.8 mph - N/A   Mostly Cloudy
8:55 AM 45.1 °F 40.3 °F 38.3 °F 77% 30.29 in 10.0 mi North 9.2 mph - N/A   Mostly Cloudy
9:15 AM 45.9 °F 42.3 °F 38.8 °F 76% 30.29 in 10.0 mi North 6.9 mph - N/A   Mostly Cloudy
9:35 AM 45.9 °F 42.3 °F 39.0 °F 77% 30.29 in 10.0 mi North 6.9 mph - N/A   Overcast
9:55 AM 46.4 °F 42.9 °F 39.6 °F 77% 30.29 in 10.0 mi North 6.9 mph - N/A   Overcast
10:15 AM 47.7 °F - 40.6 °F 77% 30.28 in 10.0 mi North 10.4 mph - N/A   Overcast
10:35 AM 47.7 °F - 40.6 °F 77% 30.27 in 10.0 mi North 9.2 mph - N/A   Scattered Clouds
10:55 AM 50.2 °F - 43.2 °F 77% 30.25 in 10.0 mi NNE 10.4 mph - N/A   Clear
11:15 AM 52.7 °F - 45.5 °F 76% 30.26 in 10.0 mi North 6.9 mph - N/A   Clear
11:35 AM 52.7 °F - 45.1 °F 75% 30.25 in 10.0 mi North 5.8 mph - N/A   Clear
11:55 AM 52.7 °F - 44.8 °F 74% 30.24 in 10.0 mi NNE 6.9 mph - N/A   Scattered Clouds
12:15 PM 53.4 °F - 45.5 °F 75% 30.24 in 10.0 mi NNE 9.2 mph - N/A   Mostly Cloudy
12:35 PM 54.0 °F - 45.9 °F 74% 30.24 in 10.0 mi NNE 5.8 mph - N/A   Mostly Cloudy
12:55 PM 55.4 °F - 47.3 °F 74% 30.22 in 10.0 mi NNE 8.1 mph - N/A   Mostly Cloudy
1:15 PM 55.4 °F - 47.5 °F 75% 30.22 in 10.0 mi North 8.1 mph - N/A   Mostly Cloudy
1:35 PM 55.4 °F - 47.3 °F 74% 30.23 in 10.0 mi NNW 9.2 mph - N/A   Mostly Cloudy
1:55 PM 55.4 °F - 47.5 °F 75% 30.21 in 10.0 mi North 8.1 mph - N/A   Overcast
2:15 PM 55.4 °F - 47.5 °F 75% 30.22 in 10.0 mi NNW 6.9 mph - N/A   Mostly Cloudy
2:35 PM 53.8 °F - 46.6 °F 77% 30.23 in 10.0 mi NW 5.8 mph - N/A   Overcast
2:55 PM 52.7 °F - 46.0 °F 78% 30.23 in 10.0 mi NNW 4.6 mph - N/A   Overcast
3:15 PM 52.7 °F - 46.0 °F 78% 30.23 in 10.0 mi NNW 9.2 mph - N/A   Overcast
3:35 PM 52.7 °F - 46.2 °F 79% 30.24 in 10.0 mi NNW 5.8 mph - N/A   Overcast
3:55 PM 52.7 °F - 46.4 °F 79% 30.23 in 10.0 mi NNW 8.1 mph - N/A   Overcast
4:15 PM 52.7 °F - 46.4 °F 79% 30.23 in 10.0 mi NNW 5.8 mph - N/A   Overcast
4:35 PM 52.7 °F - 46.4 °F 79% 30.22 in 10.0 mi North 9.2 mph - N/A   Light Drizzle
4:55 PM 52.7 °F - 46.6 °F 80% 30.22 in 10.0 mi North 6.9 mph - N/A   Overcast
5:15 PM 52.7 °F - 46.9 °F 81% 30.24 in 10.0 mi Calm Calm - N/A   Overcast
5:35 PM 52.7 °F - 46.9 °F 81% 30.23 in 10.0 mi North 5.8 mph - N/A   Overcast
5:55 PM 52.7 °F - 46.9 °F 81% 30.22 in 10.0 mi North 5.8 mph - N/A Rain Rain
6:15 PM 52.7 °F - 46.9 °F 81% 30.24 in 5.0 mi Calm Calm - 0.03 in Rain Rain
6:35 PM 52.7 °F - 46.9 °F 81% 30.24 in 5.0 mi North 3.5 mph - 0.06 in Rain Rain
6:55 PM 52.7 °F - 46.9 °F 81% 30.23 in 7.0 mi NNE 9.2 mph - 0.08 in Rain Rain
7:15 PM 52.7 °F - 46.9 °F 81% 30.24 in 10.0 mi NNE 4.6 mph - 0.01 in Rain Light Rain
7:35 PM 52.7 °F - 46.9 °F 81% 30.23 in 10.0 mi North 9.2 mph - 0.01 in Rain Light Rain
7:55 PM 50.2 °F - 44.6 °F 81% 30.23 in 7.0 mi North 8.1 mph - 0.03 in Rain Rain
8:15 PM 50.2 °F - 44.6 °F 81% 30.23 in 10.0 mi NE 9.2 mph - 0.01 in Rain Light Rain
8:35 PM 49.3 °F - 43.7 °F 81% 30.24 in 10.0 mi NE 8.1 mph - 0.03 in Rain Rain
8:55 PM 48.2 °F - 42.4 °F 80% 30.22 in 7.0 mi ENE 13.8 mph 19.6 mph 0.06 in Rain Rain
9:15 PM 47.7 °F - 42.1 °F 81% 30.23 in 10.0 mi NE 8.1 mph - 0.03 in Rain Rain
9:35 PM 47.7 °F - 42.1 °F 81% 30.22 in 10.0 mi NNE 9.2 mph - 0.04 in Rain Light Rain
9:55 PM 47.7 °F - 42.1 °F 81% 30.21 in 10.0 mi NNE 10.4 mph - 0.04 in   Light Drizzle
10:15 PM 47.7 °F - 42.1 °F 81% 30.23 in 10.0 mi NNE 6.9 mph - N/A   Overcast
10:35 PM 47.7 °F - 42.1 °F 81% 30.24 in 10.0 mi NNW 5.8 mph - 0.01 in   Mostly Cloudy
10:55 PM 47.7 °F - 42.1 °F 81% 30.23 in 10.0 mi North 8.1 mph - 0.01 in   Light Drizzle
11:15 PM 47.7 °F - 42.1 °F 81% 30.23 in 10.0 mi North 6.9 mph - N/A   Light Drizzle
11:35 PM 47.7 °F - 42.1 °F 81% 30.24 in 10.0 mi North 3.5 mph - N/A Rain Light Rain
11:55 PM 47.7 °F - 42.1 °F 81% 30.24 in 10.0 mi North 5.8 mph - N/A   Light Drizzle